Hurstpierpoint, United Kingdom
Current Conditions -  °F | °C
As of 8:20 AM on Thursday 18 Dec 2014 (Local Time) from EGKA Reporting Station
Drizzle Drizzle  
Wind Chill: 54°   Ceiling: 900
Heat Index: 54°   Visibility: 6mi
Dew Point: 52°   Wind: 16mph
Humidity: 94%   Direction: 240°WSW
Pressure: 29.88"   Gusts: NA
Location:  50.93°N, 0.18°W
Report Text: EGKA 180820Z 24014KT 9999 5000E -DZ OVC009 12/11 Q1012
Loading
Personal Weather Stations






























Interactive Weather Map New forecast layout! Learn more

10-Day Weather Forecast

Advertisements
Track Severe Weather on mobile